UWSG 272000Z 08005MPS 9999 SCT033CB 11/09 Q1013 R08/290160 NOSIG RMK QFE757/1010
QNH:(hPa/inHg/mmHg)1013 / 29.91 / 760
QFE:(hPa/inHg/mmHg)1012 / 29.88 / 759
Temperature11
Dew Point9
Visibility> 10000
Weather
Cloud CoverSCT (3300);
Transition Altitude3000 ft.
Transition LevelFL40
SQUAWK